Time;durP1;ratioP1;P1;durP2;ratioP2;P2;SDS_P1;SDS_P2;PMS_P1;PMS_P2;Temp;Humidity;BMP_temperature;BMP_pressure;BME280_temperature;BME280_humidity;BME280_pressure;Samples;Min_cycle;Max_cycle;Signal;HPM_P1;HPM_P2
2022/05/13 00:00:18;;;;;;;0.80;0.80;;;20.30;51.80;;;;;;5068618;28;43425;-60
2022/05/13 00:02:46;;;;;;;1.35;0.80;;;20.30;51.80;;;;;;5064791;28;43593;-60
2022/05/13 00:05:14;;;;;;;1.48;0.90;;;20.30;51.80;;;;;;5066376;28;43853;-61
2022/05/13 00:07:42;;;;;;;0.80;0.80;;;20.30;51.90;;;;;;5066529;28;43974;-60
2022/05/13 00:10:10;;;;;;;1.23;0.98;;;20.30;51.90;;;;;;5068949;28;44007;-60
2022/05/13 00:12:43;;;;;;;1.00;0.90;;;20.30;51.90;;;;;;5065989;28;43641;-61
2022/05/13 00:15:17;;;;;;;0.80;0.80;;;20.30;51.90;;;;;;5066698;28;44020;-60
2022/05/13 00:17:46;;;;;;;0.93;0.90;;;20.20;51.90;;;;;;5062753;28;44011;-61
2022/05/13 00:20:15;;;;;;;1.45;0.90;;;20.20;51.90;;;;;;5066370;28;43465;-60
2022/05/13 00:22:47;;;;;;;1.05;0.65;;;20.30;52.00;;;;;;5066588;28;43490;-60
2022/05/13 00:25:18;;;;;;;1.10;1.00;;;20.20;51.90;;;;;;5066339;28;44681;-60
2022/05/13 00:27:45;;;;;;;1.25;1.10;;;20.20;51.90;;;;;;5071206;28;43639;-61
2022/05/13 00:30:13;;;;;;;1.15;1.05;;;20.20;51.90;;;;;;5070158;27;43398;-60
2022/05/13 00:32:44;;;;;;;1.35;0.77;;;20.20;52.00;;;;;;5070033;28;44118;-60
2022/05/13 00:35:12;;;;;;;0.90;0.90;;;20.20;52.00;;;;;;5069910;28;44117;-60
2022/05/13 00:37:40;;;;;;;1.48;1.10;;;20.20;52.00;;;;;;5071698;28;43640;-60
2022/05/13 00:40:09;;;;;;;1.08;0.90;;;20.20;52.00;;;;;;5067355;28;43484;-61
2022/05/13 00:42:37;;;;;;;1.13;1.00;;;20.10;51.90;;;;;;5069884;28;43494;-61
2022/05/13 00:45:06;;;;;;;1.33;1.00;;;20.20;52.00;;;;;;5067008;28;44200;-60
2022/05/13 00:47:34;;;;;;;0.95;0.90;;;20.10;51.90;;;;;;5069297;28;43424;-60
2022/05/13 00:50:03;;;;;;;1.02;1.00;;;20.10;51.90;;;;;;5069840;28;43490;-60
2022/05/13 00:52:31;;;;;;;1.08;0.98;;;20.10;52.00;;;;;;5069704;28;43583;-60
2022/05/13 00:55:05;;;;;;;1.33;0.90;;;20.10;52.00;;;;;;5069691;28;43805;-61
2022/05/13 00:57:37;;;;;;;0.80;0.73;;;20.10;52.00;;;;;;5066006;28;43484;-61
2022/05/13 01:00:11;;;;;;;1.02;0.88;;;20.10;52.10;;;;;;5073408;28;43445;-61
2022/05/13 01:02:43;;;;;;;1.08;0.88;;;20.10;52.00;;;;;;5064775;28;43456;-60
2022/05/13 01:05:13;;;;;;;1.50;1.02;;;20.10;52.00;;;;;;5069708;28;44070;-60
2022/05/13 01:07:42;;;;;;;0.73;0.70;;;20.10;52.10;;;;;;5067966;28;45164;-60
2022/05/13 01:10:16;;;;;;;1.10;0.80;;;20.10;52.10;;;;;;5062782;28;44095;-61
2022/05/13 01:12:50;;;;;;;1.00;0.90;;;20.00;52.00;;;;;;5069521;28;43431;-60
2022/05/13 01:15:22;;;;;;;0.80;0.80;;;20.10;52.10;;;;;;5064032;28;44166;-60
2022/05/13 01:18:07;;;;;;;0.85;0.70;;;20.10;52.10;;;;;;5061351;28;44053;-60
2022/05/13 01:20:46;;;;;;;1.30;0.90;;;20.00;52.00;;;;;;5065813;28;43460;-60
2022/05/13 01:23:30;;;;;;;1.25;0.80;;;20.10;52.10;;;;;;5070199;27;43553;-61
2022/05/13 01:26:04;;;;;;;0.80;0.80;;;20.10;52.10;;;;;;5068014;28;44060;-61
2022/05/13 01:28:37;;;;;;;0.77;0.77;;;20.00;52.10;;;;;;5068921;28;43482;-60
2022/05/13 01:31:09;;;;;;;1.17;0.80;;;20.00;52.10;;;;;;5067330;28;43498;-60
2022/05/13 01:33:38;;;;;;;1.23;0.90;;;20.00;52.00;;;;;;5063428;28;43397;-60
2022/05/13 01:36:09;;;;;;;1.75;0.80;;;20.10;52.10;;;;;;5063861;28;44029;-61
2022/05/13 01:38:38;;;;;;;0.93;0.82;;;20.00;52.10;;;;;;5067924;28;44748;-60
2022/05/13 01:41:08;;;;;;;1.13;0.85;;;20.00;52.00;;;;;;5069934;28;44074;-60
2022/05/13 01:43:37;;;;;;;1.45;0.73;;;20.00;52.10;;;;;;5068770;28;43503;-61
2022/05/13 01:46:04;;;;;;;1.23;1.00;;;20.00;52.10;;;;;;5068343;28;43877;-60
2022/05/13 01:48:34;;;;;;;0.73;0.70;;;20.00;52.10;;;;;;5068248;28;43762;-60
2022/05/13 01:51:01;;;;;;;1.15;0.82;;;20.00;52.10;;;;;;5067131;28;43475;-60
2022/05/13 01:53:29;;;;;;;1.75;0.90;;;20.00;52.10;;;;;;5068539;28;43406;-60
2022/05/13 01:55:57;;;;;;;1.35;1.00;;;20.00;52.10;;;;;;5069087;28;43800;-61
2022/05/13 01:58:29;;;;;;;1.45;0.80;;;20.00;52.10;;;;;;5071646;28;43973;-60
2022/05/13 02:00:58;;;;;;;1.92;0.80;;;20.00;52.10;;;;;;5065917;28;43465;-61
2022/05/13 02:03:45;;;;;;;1.30;0.95;;;20.00;52.10;;;;;;5068191;28;43502;-60
2022/05/13 02:06:23;;;;;;;1.52;0.90;;;20.00;52.10;;;;;;5068046;28;45809;-60
2022/05/13 02:08:53;;;;;;;1.30;0.90;;;19.90;52.10;;;;;;5068774;28;43423;-60
2022/05/13 02:11:22;;;;;;;0.85;0.80;;;19.90;52.10;;;;;;5065297;28;43579;-61
2022/05/13 02:13:51;;;;;;;1.10;0.88;;;20.00;52.20;;;;;;5068499;28;43609;-60
2022/05/13 02:16:19;;;;;;;1.00;0.90;;;19.90;52.20;;;;;;5070124;28;44999;-60
2022/05/13 02:18:47;;;;;;;1.92;1.00;;;19.90;52.20;;;;;;5066626;28;43446;-60
2022/05/13 02:21:17;;;;;;;1.73;1.10;;;19.90;52.20;;;;;;5070007;28;43480;-60
2022/05/13 02:23:45;;;;;;;1.85;0.98;;;19.90;52.20;;;;;;5066420;28;43532;-60
2022/05/13 02:26:14;;;;;;;1.85;1.00;;;19.90;52.20;;;;;;5066572;28;44449;-60
2022/05/13 02:28:42;;;;;;;1.35;1.05;;;19.90;52.20;;;;;;5065422;28;43640;-61
2022/05/13 02:31:11;;;;;;;1.00;0.90;;;19.90;52.20;;;;;;5068870;28;43532;-60
2022/05/13 02:33:39;;;;;;;1.10;0.98;;;19.90;52.20;;;;;;5069945;28;43516;-60
2022/05/13 02:36:08;;;;;;;0.90;0.65;;;19.90;52.20;;;;;;5069328;28;43743;-61
2022/05/13 02:38:36;;;;;;;1.80;1.00;;;19.90;52.20;;;;;;5064919;28;43497;-60
2022/05/13 02:41:13;;;;;;;1.00;0.90;;;19.90;52.20;;;;;;5074131;28;43474;-60
2022/05/13 02:43:48;;;;;;;1.15;0.82;;;19.90;52.10;;;;;;5067715;28;43481;-61
2022/05/13 02:46:19;;;;;;;0.90;0.70;;;19.90;52.20;;;;;;5065423;28;44290;-60
2022/05/13 02:48:47;;;;;;;1.75;0.93;;;19.90;52.20;;;;;;5069365;28;43510;-60
2022/05/13 02:51:16;;;;;;;1.17;0.98;;;19.90;52.20;;;;;;5068678;27;43455;-60
2022/05/13 02:53:44;;;;;;;1.08;0.90;;;19.90;52.20;;;;;;5068567;28;43558;-60
2022/05/13 02:56:12;;;;;;;1.33;0.98;;;19.90;52.20;;;;;;5055089;28;44305;-61
2022/05/13 02:58:41;;;;;;;1.42;0.90;;;19.80;52.20;;;;;;5067603;28;43537;-61
2022/05/13 03:01:11;;;;;;;1.77;0.93;;;19.80;52.20;;;;;;5068795;28;43470;-60
2022/05/13 03:03:41;;;;;;;1.65;1.00;;;19.80;52.20;;;;;;5068702;27;43427;-60
2022/05/13 03:06:09;;;;;;;1.00;0.80;;;19.80;52.20;;;;;;5065113;28;44048;-61
2022/05/13 03:08:36;;;;;;;0.98;0.82;;;19.80;52.20;;;;;;5067586;28;43426;-61
2022/05/13 03:11:05;;;;;;;2.67;1.35;;;19.80;52.20;;;;;;5069504;28;43386;-61
2022/05/13 03:13:33;;;;;;;2.17;0.88;;;19.80;52.30;;;;;;5068230;27;43536;-61
2022/05/13 03:16:05;;;;;;;1.45;0.90;;;19.80;52.30;;;;;;5063644;28;45096;-60
2022/05/13 03:18:33;;;;;;;1.20;1.00;;;19.80;52.30;;;;;;5067399;28;43675;-61
2022/05/13 03:21:01;;;;;;;1.52;0.90;;;19.80;52.20;;;;;;5069823;28;43476;-61
2022/05/13 03:23:28;;;;;;;1.23;0.90;;;19.80;52.20;;;;;;5066943;28;43635;-60
2022/05/13 03:25:56;;;;;;;1.15;1.02;;;19.80;52.30;;;;;;5066307;28;44818;-61
2022/05/13 03:28:24;;;;;;;2.20;1.08;;;19.80;52.20;;;;;;5066795;28;43559;-60
2022/05/13 03:30:52;;;;;;;0.88;0.82;;;19.80;52.20;;;;;;5070100;28;43383;-60
2022/05/13 03:33:20;;;;;;;1.60;1.20;;;19.80;52.20;;;;;;5065511;28;44046;-60
2022/05/13 03:35:48;;;;;;;1.17;0.90;;;19.80;52.20;;;;;;5065395;28;44075;-60
2022/05/13 03:38:16;;;;;;;2.17;1.20;;;19.80;52.20;;;;;;5067423;28;43454;-60
2022/05/13 03:40:45;;;;;;;1.15;0.85;;;19.80;52.20;;;;;;5068597;28;43447;-60
2022/05/13 03:43:13;;;;;;;1.73;1.05;;;19.80;52.20;;;;;;5064511;28;43628;-60
2022/05/13 03:45:42;;;;;;;1.70;1.00;;;19.70;52.20;;;;;;5067389;28;43861;-60
2022/05/13 03:48:10;;;;;;;1.40;1.10;;;19.80;52.30;;;;;;5066984;28;43484;-60
2022/05/13 03:50:40;;;;;;;1.48;1.13;;;19.70;52.30;;;;;;5065154;28;43474;-60
2022/05/13 03:53:08;;;;;;;2.22;1.23;;;19.70;52.20;;;;;;5066776;28;43477;-60
2022/05/13 03:55:36;;;;;;;1.75;1.10;;;19.80;52.30;;;;;;5066123;28;44916;-60
2022/05/13 03:58:04;;;;;;;1.80;1.05;;;19.80;52.30;;;;;;5069640;28;43509;-61
2022/05/13 04:00:32;;;;;;;2.45;1.15;;;19.80;52.30;;;;;;5067971;28;43449;-60
2022/05/13 04:03:00;;;;;;;1.60;0.88;;;19.80;52.30;;;;;;5059938;28;43495;-60
2022/05/13 04:11:00;;;;;;;1.42;1.10;;;19.70;52.30;;;;;;5057667;28;43410;-60
2022/05/13 04:16:14;;;;;;;1.73;1.20;;;19.70;52.40;;;;;;5068114;28;44719;-60
2022/05/13 04:18:47;;;;;;;1.88;1.10;;;19.70;52.40;;;;;;5085575;27;43521;-60
2022/05/13 04:21:28;;;;;;;1.80;1.10;;;19.70;52.40;;;;;;5066958;28;43468;-60
2022/05/13 04:23:59;;;;;;;1.85;1.17;;;19.70;52.40;;;;;;5066377;28;43483;-60
2022/05/13 04:26:27;;;;;;;1.63;1.13;;;19.70;52.40;;;;;;5069499;28;44954;-60
2022/05/13 04:28:56;;;;;;;2.50;1.20;;;19.70;52.40;;;;;;5069146;28;43683;-60
2022/05/13 04:31:26;;;;;;;2.33;1.33;;;19.70;52.40;;;;;;5070220;28;43446;-60
2022/05/13 04:33:55;;;;;;;2.40;1.20;;;19.70;52.40;;;;;;5068478;28;43430;-60
2022/05/13 04:36:23;;;;;;;1.88;1.48;;;19.70;52.40;;;;;;5065180;27;44066;-60
2022/05/13 04:38:52;;;;;;;2.33;1.38;;;19.70;52.30;;;;;;5068140;28;43478;-60
2022/05/13 04:44:08;;;;;;;2.70;1.27;;;19.70;52.40;;;;;;5067516;28;43565;-60
2022/05/13 04:46:36;;;;;;;2.38;1.35;;;19.70;52.40;;;;;;5067946;28;43867;-60
2022/05/13 04:49:04;;;;;;;2.45;1.23;;;19.70;52.50;;;;;;5078581;28;44052;-60
2022/05/13 04:51:32;;;;;;;2.70;1.08;;;19.70;52.50;;;;;;5072141;28;43554;-61
2022/05/13 04:54:00;;;;;;;1.33;1.00;;;19.60;52.40;;;;;;5066773;28;43436;-60
2022/05/13 04:56:29;;;;;;;3.03;1.60;;;19.60;52.40;;;;;;5059792;28;44369;-60
2022/05/13 04:58:57;;;;;;;1.77;1.40;;;19.60;52.30;;;;;;5069677;28;44006;-61
2022/05/13 05:01:26;;;;;;;2.35;1.02;;;19.60;52.40;;;;;;5070947;28;44105;-60
2022/05/13 05:03:53;;;;;;;3.53;1.38;;;19.60;52.40;;;;;;5067359;28;43538;-60
2022/05/13 05:06:22;;;;;;;3.17;1.55;;;19.60;52.40;;;;;;5066747;28;43742;-60
2022/05/13 05:08:50;;;;;;;2.95;1.33;;;19.60;52.50;;;;;;5069487;28;43451;-60
2022/05/13 05:11:18;;;;;;;2.28;1.35;;;19.60;52.50;;;;;;5067805;27;44046;-60
2022/05/13 05:13:49;;;;;;;2.47;1.30;;;19.60;52.50;;;;;;5070377;28;43651;-61
2022/05/13 05:16:19;;;;;;;4.85;1.50;;;19.60;52.60;;;;;;5065348;28;43861;-61
2022/05/13 05:18:46;;;;;;;2.60;1.23;;;19.60;52.60;;;;;;5067711;28;44006;-61
2022/05/13 05:21:14;;;;;;;2.45;1.10;;;19.60;52.60;;;;;;5072422;28;43509;-61
2022/05/13 05:23:43;;;;;;;2.72;1.20;;;19.60;52.60;;;;;;5065159;28;43480;-61
2022/05/13 05:26:12;;;;;;;2.20;1.60;;;19.60;52.60;;;;;;5068969;28;44296;-62
2022/05/13 05:28:40;;;;;;;1.73;1.10;;;19.60;52.60;;;;;;5069756;28;43450;-61
2022/05/13 05:31:11;;;;;;;4.53;1.50;;;19.50;52.60;;;;;;5070481;28;43488;-60
2022/05/13 05:33:39;;;;;;;2.28;1.48;;;19.50;52.60;;;;;;5066981;28;43425;-61
2022/05/13 05:36:07;;;;;;;2.75;1.40;;;19.50;52.60;;;;;;5069010;28;44042;-61
2022/05/13 05:38:34;;;;;;;2.38;1.40;;;19.60;52.70;;;;;;5070864;28;43461;-61
2022/05/13 05:41:02;;;;;;;2.60;1.40;;;19.50;52.60;;;;;;5071103;27;43463;-61
2022/05/13 05:43:30;;;;;;;2.58;1.27;;;19.50;52.70;;;;;;5075079;27;43628;-61
2022/05/13 05:45:59;;;;;;;1.63;1.20;;;19.50;52.70;;;;;;5068426;28;43803;-61
2022/05/13 05:48:27;;;;;;;3.03;1.55;;;19.50;52.70;;;;;;5068853;28;43762;-62
2022/05/13 05:50:56;;;;;;;2.10;1.30;;;19.50;52.70;;;;;;5066248;28;43422;-60
2022/05/13 05:59:00;;;;;;;2.80;1.23;;;19.50;52.80;;;;;;5068380;28;43434;-61
2022/05/13 06:01:28;;;;;;;2.70;1.20;;;19.50;52.80;;;;;;5067606;28;43488;-61
2022/05/13 06:03:56;;;;;;;1.55;1.10;;;19.50;52.80;;;;;;5068920;28;43612;-61
2022/05/13 06:06:25;;;;;;;2.45;1.30;;;19.50;52.70;;;;;;5070907;27;43780;-61
2022/05/13 06:08:57;;;;;;;1.42;1.30;;;19.50;52.80;;;;;;5064585;28;43489;-61
2022/05/13 06:11:25;;;;;;;2.15;1.23;;;19.50;52.80;;;;;;5059899;28;43383;-61
2022/05/13 06:13:58;;;;;;;2.05;1.25;;;19.50;52.80;;;;;;5069657;28;43466;-61
2022/05/13 06:16:27;;;;;;;4.00;1.38;;;19.50;52.80;;;;;;5068736;28;45042;-61
2022/05/13 06:18:58;;;;;;;2.05;1.40;;;19.50;52.70;;;;;;5058019;28;43491;-60
2022/05/13 06:21:25;;;;;;;1.65;1.27;;;19.60;52.80;;;;;;5065829;28;43538;-61
2022/05/13 06:23:53;;;;;;;1.52;1.20;;;19.50;52.80;;;;;;5067643;28;43479;-61
2022/05/13 06:26:21;;;;;;;1.63;1.10;;;19.50;52.80;;;;;;5069023;28;43807;-61
2022/05/13 06:28:49;;;;;;;1.85;1.40;;;19.50;52.80;;;;;;5068123;28;43456;-61
2022/05/13 06:31:18;;;;;;;2.20;1.30;;;19.50;52.80;;;;;;5064785;28;43470;-61
2022/05/13 06:33:46;;;;;;;1.52;1.17;;;19.50;52.80;;;;;;5070762;28;43995;-61
2022/05/13 06:36:14;;;;;;;4.88;1.75;;;19.50;52.90;;;;;;5067716;28;44041;-60
2022/05/13 06:38:42;;;;;;;2.75;1.70;;;19.50;53.00;;;;;;5066992;28;43458;-60
2022/05/13 06:41:09;;;;;;;2.88;1.70;;;19.50;52.90;;;;;;5066853;28;43477;-60
2022/05/13 06:43:37;;;;;;;1.70;1.60;;;19.50;52.80;;;;;;5067843;28;43532;-60
2022/05/13 06:46:05;;;;;;;4.07;1.80;;;19.60;52.90;;;;;;5081014;27;43808;-61
2022/05/13 06:48:32;;;;;;;3.17;1.70;;;19.60;52.70;;;;;;5064958;28;43878;-61
2022/05/13 06:51:01;;;;;;;1.90;1.48;;;19.60;52.70;;;;;;5067687;28;43430;-60
2022/05/13 06:53:28;;;;;;;1.92;1.50;;;19.60;52.60;;;;;;5070626;28;43509;-60
2022/05/13 06:55:56;;;;;;;2.97;1.55;;;19.60;52.80;;;;;;5066203;28;44928;-61
2022/05/13 06:58:24;;;;;;;2.80;1.50;;;19.70;52.80;;;;;;5068494;28;43859;-61
2022/05/13 07:00:51;;;;;;;2.85;1.50;;;19.70;52.80;;;;;;5067967;28;43415;-60
2022/05/13 07:03:21;;;;;;;3.22;1.75;;;19.80;52.70;;;;;;5070324;28;43540;-60
2022/05/13 07:05:49;;;;;;;2.28;1.50;;;19.80;52.50;;;;;;5078800;27;44032;-60
2022/05/13 07:08:16;;;;;;;4.07;1.70;;;19.80;53.00;;;;;;5064010;28;43469;-61
2022/05/13 07:10:44;;;;;;;2.65;1.42;;;19.90;53.20;;;;;;5067373;28;43440;-61
2022/05/13 07:13:14;;;;;;;4.25;1.70;;;20.00;52.90;;;;;;5066019;28;43510;-61
2022/05/13 07:15:43;;;;;;;5.28;1.50;;;20.10;53.00;;;;;;5062534;28;44055;-61
2022/05/13 07:18:11;;;;;;;6.00;1.90;;;20.20;53.20;;;;;;5065405;28;44171;-60
2022/05/13 07:20:39;;;;;;;3.35;1.50;;;20.30;53.00;;;;;;5067110;28;43504;-60
2022/05/13 07:23:07;;;;;;;2.70;1.63;;;20.40;52.80;;;;;;5064575;28;43504;-61
2022/05/13 07:25:34;;;;;;;2.65;1.42;;;20.50;52.70;;;;;;5057681;28;44083;-61
2022/05/13 07:28:02;;;;;;;4.63;1.55;;;20.60;52.60;;;;;;5065077;28;43550;-60
2022/05/13 07:30:30;;;;;;;5.00;1.67;;;20.70;52.70;;;;;;5066170;28;43449;-60
2022/05/13 07:32:57;;;;;;;3.80;1.42;;;20.80;52.40;;;;;;5065659;27;43580;-60
2022/05/13 07:35:26;;;;;;;7.57;1.90;;;20.90;52.40;;;;;;5065867;28;43792;-59
2022/05/13 07:37:53;;;;;;;4.32;1.50;;;21.00;52.10;;;;;;5066373;28;43470;-60
2022/05/13 07:43:07;;;;;;;4.95;1.40;;;21.20;51.70;;;;;;5062860;28;43522;-61
2022/05/13 07:45:36;;;;;;;2.50;1.30;;;21.30;51.50;;;;;;5058659;28;43711;-61
2022/05/13 07:48:04;;;;;;;3.17;1.20;;;21.40;51.30;;;;;;5062440;28;43993;-61
2022/05/13 07:50:31;;;;;;;1.60;1.20;;;21.60;51.20;;;;;;5065764;28;43486;-61
2022/05/13 07:52:59;;;;;;;2.38;1.45;;;21.70;51.00;;;;;;5062996;27;43455;-61
2022/05/13 07:55:27;;;;;;;3.15;1.13;;;21.80;50.80;;;;;;5065064;28;43799;-60
2022/05/13 07:57:54;;;;;;;1.65;1.20;;;21.80;50.60;;;;;;5066754;28;43520;-60
2022/05/13 08:00:32;;;;;;;3.28;1.20;;;21.90;50.50;;;;;;5063303;28;43371;-61
2022/05/13 08:03:06;;;;;;;3.33;1.40;;;22.00;50.40;;;;;;5054293;28;44160;-61
2022/05/13 08:05:42;;;;;;;4.63;1.40;;;22.00;50.40;;;;;;5063891;28;44057;-61
2022/05/13 08:08:23;;;;;;;2.60;1.20;;;22.00;50.30;;;;;;5067832;28;43547;-60
2022/05/13 08:10:54;;;;;;;3.15;1.20;;;22.10;50.30;;;;;;5057176;28;43447;-61
2022/05/13 08:13:23;;;;;;;1.52;1.10;;;22.00;50.30;;;;;;5070804;28;43501;-60
2022/05/13 08:15:51;;;;;;;2.20;1.10;;;22.00;50.20;;;;;;5008357;28;1394748;-60
2022/05/13 08:18:21;;;;;;;2.78;1.10;;;22.00;50.20;;;;;;5065384;28;43511;-61
2022/05/13 08:20:49;;;;;;;3.10;1.25;;;22.10;50.30;;;;;;5062931;28;43484;-61
2022/05/13 08:23:17;;;;;;;3.08;1.33;;;22.10;50.30;;;;;;5065198;28;43554;-61
2022/05/13 08:25:45;;;;;;;3.15;1.10;;;22.00;50.30;;;;;;5064905;28;44096;-61
2022/05/13 08:28:14;;;;;;;3.63;1.20;;;22.00;50.30;;;;;;5063652;28;43653;-60
2022/05/13 08:30:42;;;;;;;1.92;1.13;;;22.00;50.30;;;;;;5062148;28;43552;-61
2022/05/13 08:33:11;;;;;;;1.25;1.15;;;22.00;50.30;;;;;;5065787;28;43493;-61
2022/05/13 08:35:48;;;;;;;2.15;1.27;;;22.00;50.40;;;;;;5064834;28;44699;-61
2022/05/13 08:38:17;;;;;;;2.97;1.00;;;22.00;50.40;;;;;;5067799;28;44074;-61
2022/05/13 08:40:53;;;;;;;2.53;1.15;;;22.00;50.40;;;;;;5064235;27;44011;-60
2022/05/13 08:43:45;;;;;;;2.33;1.20;;;22.00;50.40;;;;;;5066596;28;43502;-61
2022/05/13 08:46:33;;;;;;;3.88;1.38;;;22.00;50.40;;;;;;5062171;28;45004;-59
2022/05/13 08:49:14;;;;;;;1.38;1.13;;;21.90;50.40;;;;;;5067294;28;43576;-60
2022/05/13 08:53:06;;;;;;;4.47;1.20;;;21.90;50.60;;;;;;5070699;28;43425;-60
2022/05/13 08:54:53;;;;;;;3.75;0.93;;;21.90;50.60;;;;;;5069056;28;43524;-61
2022/05/13 08:57:24;;;;;;;4.03;1.10;;;21.90;50.80;;;;;;5067116;28;43945;-61
2022/05/13 09:00:03;;;;;;;2.78;1.13;;;21.90;50.60;;;;;;5068153;28;43733;-61
2022/05/13 09:02:39;;;;;;;4.63;1.38;;;22.00;50.60;;;;;;5068147;28;43438;-61
2022/05/13 09:05:37;;;;;;;4.65;1.40;;;21.90;50.50;;;;;;5069993;28;43597;-60
2022/05/13 09:08:06;;;;;;;4.40;1.45;;;22.00;50.50;;;;;;5075082;28;43780;-61
2022/05/13 09:10:53;;;;;;;1.65;0.90;;;22.00;50.40;;;;;;5070609;28;43867;-60
2022/05/13 09:13:29;;;;;;;2.25;1.10;;;22.10;50.50;;;;;;5065242;28;43536;-61
2022/05/13 09:15:58;;;;;;;2.08;1.10;;;22.10;50.50;;;;;;5056633;28;43594;-61
2022/05/13 09:18:34;;;;;;;1.80;0.98;;;22.20;50.70;;;;;;5065659;28;44066;-61
2022/05/13 09:21:09;;;;;;;3.78;1.27;;;22.30;50.50;;;;;;5074075;27;43738;-60
2022/05/13 09:23:37;;;;;;;1.90;1.00;;;22.30;50.80;;;;;;5068959;28;43468;-60
2022/05/13 09:26:13;;;;;;;2.95;1.20;;;22.30;50.60;;;;;;5067740;28;43656;-61
2022/05/13 09:29:05;;;;;;;2.63;1.30;;;22.40;50.70;;;;;;5070955;28;44058;-61
2022/05/13 09:31:37;;;;;;;4.10;1.08;;;22.40;50.30;;;;;;5063807;28;43946;-61
2022/05/13 09:34:14;;;;;;;2.92;1.30;;;22.40;50.40;;;;;;5079266;28;43473;-61
2022/05/13 09:36:41;;;;;;;2.80;1.30;;;22.40;50.40;;;;;;5068437;27;43497;-61
2022/05/13 09:39:22;;;;;;;1.60;1.20;;;22.40;50.40;;;;;;5067079;28;44138;-61
2022/05/13 09:41:52;;;;;;;2.45;1.23;;;22.40;50.40;;;;;;5061345;28;43410;-61
2022/05/13 09:44:26;;;;;;;3.40;1.00;;;22.40;50.30;;;;;;5066379;28;43426;-62
2022/05/13 09:47:12;;;;;;;1.63;1.15;;;22.40;50.50;;;;;;5067962;28;43621;-62
2022/05/13 09:50:00;;;;;;;3.47;1.50;;;22.40;50.70;;;;;;5063360;28;43787;-62
2022/05/13 09:52:36;;;;;;;2.45;1.10;;;22.40;50.70;;;;;;5068163;28;43423;-62
2022/05/13 09:55:22;;;;;;;2.53;1.20;;;22.40;50.40;;;;;;5059769;28;43450;-61
2022/05/13 09:57:51;;;;;;;1.77;1.30;;;22.40;50.60;;;;;;5065218;28;43578;-62
2022/05/13 10:00:27;;;;;;;2.72;1.10;;;22.40;50.30;;;;;;5069207;28;43818;-61
2022/05/13 10:03:37;;;;;;;2.85;1.15;;;22.40;50.20;;;;;;5068442;28;43425;-61
2022/05/13 10:06:10;;;;;;;1.40;1.02;;;22.40;50.10;;;;;;5040949;28;43861;-61
2022/05/13 10:13:57;;;;;;;1.75;1.15;;;22.50;50.20;;;;;;5041269;28;43720;-61
2022/05/13 10:14:41;;;;;;;1.20;0.90;;;22.40;50.10;;;;;;5066473;28;43536;-61
2022/05/13 10:17:12;;;;;;;2.85;1.30;;;22.50;50.20;;;;;;5067018;28;43516;-61
2022/05/13 10:19:49;;;;;;;2.25;1.13;;;22.50;50.20;;;;;;5070005;28;43553;-61
2022/05/13 10:22:19;;;;;;;2.35;1.20;;;22.50;50.20;;;;;;5066969;28;43949;-62
2022/05/13 10:25:03;;;;;;;2.33;1.30;;;22.50;50.20;;;;;;5067354;28;43490;-61
2022/05/13 10:27:46;;;;;;;2.95;1.13;;;22.50;50.20;;;;;;5068195;28;43457;-62
2022/05/13 10:30:17;;;;;;;2.60;1.23;;;22.50;50.30;;;;;;5066363;28;43502;-61
2022/05/13 10:32:56;;;;;;;2.58;1.27;;;22.50;50.30;;;;;;5066420;28;45355;-62
2022/05/13 10:35:31;;;;;;;2.33;1.13;;;22.40;50.40;;;;;;5067816;28;43443;-62
2022/05/13 10:38:23;;;;;;;2.65;1.58;;;22.40;50.40;;;;;;5065168;28;43443;-61
2022/05/13 10:40:52;;;;;;;2.35;1.27;;;22.50;50.60;;;;;;5067660;28;43467;-61
2022/05/13 10:43:28;;;;;;;2.47;1.20;;;22.40;50.60;;;;;;5068271;28;43852;-61
2022/05/13 10:46:04;;;;;;;2.78;1.30;;;22.40;50.50;;;;;;5072318;28;43527;-62
2022/05/13 10:48:31;;;;;;;3.05;1.38;;;22.40;50.50;;;;;;5065000;28;43462;-61
2022/05/13 10:51:19;;;;;;;2.65;1.20;;;22.40;50.50;;;;;;5065428;28;43478;-61
2022/05/13 10:54:03;;;;;;;1.13;1.00;;;22.40;50.40;;;;;;5065708;28;43796;-61
2022/05/13 10:56:46;;;;;;;2.10;1.10;;;22.40;50.40;;;;;;5067038;28;43486;-61
2022/05/13 10:59:25;;;;;;;2.22;1.30;;;22.40;50.50;;;;;;5069600;28;43398;-62
2022/05/13 11:02:40;;;;;;;2.97;1.30;;;22.30;50.40;;;;;;5067660;28;43516;-61
2022/05/13 11:05:20;;;;;;;1.60;1.30;;;22.30;50.50;;;;;;5061777;28;43975;-62
2022/05/13 11:08:16;;;;;;;2.97;1.40;;;22.30;50.50;;;;;;5056931;28;43973;-61
2022/05/13 11:10:51;;;;;;;2.63;1.40;;;22.30;50.60;;;;;;5051620;27;43523;-62
2022/05/13 11:13:19;;;;;;;1.63;1.25;;;22.30;50.60;;;;;;5067762;27;43597;-61
2022/05/13 11:15:54;;;;;;;3.67;1.50;;;22.30;50.60;;;;;;5064997;28;44077;-62
2022/05/13 11:18:41;;;;;;;4.40;1.90;;;22.30;51.30;;;;;;5067030;28;43950;-62
2022/05/13 11:21:35;;;;;;;2.47;1.50;;;22.30;50.70;;;;;;5068686;28;43457;-62
2022/05/13 11:27:57;;;;;;;2.92;1.67;;;22.20;50.60;;;;;;5066789;28;43785;-61
2022/05/13 11:30:47;;;;;;;2.38;1.40;;;22.20;50.60;;;;;;5065243;28;43521;-62
2022/05/13 11:33:50;;;;;;;1.90;1.25;;;22.10;51.40;;;;;;5065907;28;43507;-61
2022/05/13 11:36:27;;;;;;;3.08;1.50;;;22.20;50.80;;;;;;5062183;28;43636;-61
2022/05/13 11:39:16;;;;;;;2.85;1.50;;;22.20;50.80;;;;;;5068376;27;44963;-61
2022/05/13 11:41:56;;;;;;;3.53;1.67;;;22.10;50.80;;;;;;5057524;28;43538;-61
2022/05/13 11:44:50;;;;;;;2.35;1.70;;;22.10;50.90;;;;;;5063864;28;43540;-61
2022/05/13 11:47:56;;;;;;;3.28;2.00;;;22.10;50.90;;;;;;5066057;28;43650;-61
2022/05/13 11:50:29;;;;;;;4.38;2.00;;;22.10;50.80;;;;;;5068801;28;44025;-61
2022/05/13 11:52:59;;;;;;;3.00;1.70;;;22.10;50.90;;;;;;5063868;28;43419;-61
2022/05/13 11:55:39;;;;;;;3.30;1.80;;;22.10;50.90;;;;;;5066383;28;43601;-61
2022/05/13 11:58:08;;;;;;;3.42;2.20;;;22.10;50.90;;;;;;5069343;28;43557;-61
2022/05/13 12:00:38;;;;;;;2.95;1.98;;;22.10;50.90;;;;;;5066288;27;43988;-61
2022/05/13 12:03:08;;;;;;;3.78;1.83;;;22.00;50.90;;;;;;5066602;28;43915;-61
2022/05/13 12:05:46;;;;;;;3.58;2.40;;;22.00;51.50;;;;;;5065972;28;43470;-61
2022/05/13 12:08:23;;;;;;;3.25;2.00;;;22.00;50.90;;;;;;5065881;28;43518;-62
2022/05/13 12:11:26;;;;;;;3.25;1.83;;;22.00;50.90;;;;;;5054399;28;44638;-61
2022/05/13 12:14:17;;;;;;;3.65;2.10;;;22.00;50.70;;;;;;5067925;28;43582;-61
2022/05/13 12:17:14;;;;;;;2.78;1.73;;;22.00;50.60;;;;;;5064066;28;43501;-62
2022/05/13 12:20:11;;;;;;;2.65;1.60;;;22.00;50.60;;;;;;5066968;28;44162;-61
2022/05/13 12:23:03;;;;;;;3.42;1.73;;;21.90;50.50;;;;;;5064268;28;44686;-61
2022/05/13 12:25:34;;;;;;;2.95;1.70;;;21.90;50.50;;;;;;5045550;28;43424;-61
2022/05/13 12:28:10;;;;;;;3.05;1.73;;;21.90;50.60;;;;;;5070466;27;43525;-62
2022/05/13 12:30:46;;;;;;;2.97;1.60;;;21.90;50.40;;;;;;5068550;28;43573;-61
2022/05/13 12:33:20;;;;;;;4.57;1.90;;;21.80;50.40;;;;;;5069895;28;43892;-62
2022/05/13 12:39:17;;;;;;;4.28;1.80;;;21.80;50.40;;;;;;5067730;28;43562;-61
2022/05/13 12:42:06;;;;;;;4.13;1.70;;;21.80;50.50;;;;;;5084772;27;43517;-61
2022/05/13 12:44:58;;;;;;;2.85;1.70;;;21.70;50.40;;;;;;5067730;28;43991;-61
2022/05/13 12:47:28;;;;;;;2.53;1.73;;;21.70;50.50;;;;;;5069931;28;43984;-62
2022/05/13 12:50:14;;;;;;;3.23;1.67;;;21.70;50.50;;;;;;5069640;28;43584;-62
2022/05/13 12:52:44;;;;;;;3.83;1.58;;;21.70;50.50;;;;;;5070137;28;43597;-61
2022/05/13 12:55:23;;;;;;;3.65;1.58;;;21.70;50.60;;;;;;5071950;28;43802;-62
2022/05/13 12:58:02;;;;;;;2.35;1.35;;;21.70;50.70;;;;;;5066994;28;43915;-62
2022/05/13 13:00:36;;;;;;;2.75;1.50;;;21.70;50.70;;;;;;5069834;28;43486;-61
2022/05/13 13:03:07;;;;;;;3.05;1.50;;;21.70;50.80;;;;;;5071733;28;43565;-61
2022/05/13 13:05:38;;;;;;;4.45;2.03;;;21.70;50.90;;;;;;5068194;28;44814;-61
2022/05/13 13:08:13;;;;;;;3.65;1.50;;;21.70;50.90;;;;;;5068992;28;44266;-61
2022/05/13 13:11:08;;;;;;;3.00;1.92;;;21.70;50.90;;;;;;5069067;28;43456;-62
2022/05/13 13:13:38;;;;;;;2.10;1.40;;;21.70;50.90;;;;;;5068438;28;43664;-61
2022/05/13 13:16:16;;;;;;;4.07;1.80;;;21.70;50.80;;;;;;5067702;28;46577;-62
2022/05/13 13:18:44;;;;;;;3.67;1.77;;;21.60;50.70;;;;;;5064838;28;43481;-61
2022/05/13 13:21:14;;;;;;;3.88;1.70;;;21.60;50.70;;;;;;5069146;27;43455;-62
2022/05/13 13:23:43;;;;;;;3.58;1.63;;;21.60;50.70;;;;;;5070317;28;43586;-61
2022/05/13 13:26:13;;;;;;;4.18;1.83;;;21.60;50.70;;;;;;5067503;28;43801;-61
2022/05/13 13:28:43;;;;;;;3.03;1.50;;;21.60;50.80;;;;;;5071157;28;43341;-61
2022/05/13 13:31:21;;;;;;;4.22;1.60;;;21.60;50.80;;;;;;5070244;28;43517;-61
2022/05/13 13:33:53;;;;;;;3.50;1.48;;;21.60;50.70;;;;;;5060812;28;43921;-62
2022/05/13 13:36:30;;;;;;;4.28;1.80;;;21.60;50.70;;;;;;5067063;28;45290;-61
2022/05/13 13:39:18;;;;;;;3.35;1.92;;;21.60;50.60;;;;;;5059352;28;43937;-61
2022/05/13 13:41:47;;;;;;;3.50;1.50;;;21.50;50.50;;;;;;5068859;28;43410;-61
2022/05/13 13:44:15;;;;;;;3.78;1.73;;;21.60;50.70;;;;;;5071962;28;44075;-61
2022/05/13 13:46:47;;;;;;;3.83;1.70;;;21.50;50.80;;;;;;5069796;27;43825;-61